sensor_id;sensor_type;location;lat;lon;timestamp;P1;durP1;ratioP1;P2;durP2;ratioP2
28714;SDS011;15886;49.170;14.572;2023-04-03T00:04:49;9.77;;;7.00;;
28714;SDS011;15886;49.170;14.572;2023-04-03T00:07:17;9.57;;;6.78;;
28714;SDS011;15886;49.170;14.572;2023-04-03T00:09:46;11.07;;;6.93;;
28714;SDS011;15886;49.170;14.572;2023-04-03T00:12:14;16.08;;;7.80;;
28714;SDS011;15886;49.170;14.572;2023-04-03T00:14:43;12.85;;;7.97;;
28714;SDS011;15886;49.170;14.572;2023-04-03T00:17:17;14.68;;;6.38;;
28714;SDS011;15886;49.170;14.572;2023-04-03T00:19:45;16.00;;;8.38;;
28714;SDS011;15886;49.170;14.572;2023-04-03T00:22:16;12.00;;;7.40;;
28714;SDS011;15886;49.170;14.572;2023-04-03T00:24:44;9.10;;;6.60;;
28714;SDS011;15886;49.170;14.572;2023-04-03T00:27:16;10.75;;;6.72;;
28714;SDS011;15886;49.170;14.572;2023-04-03T00:29:44;9.77;;;6.40;;
28714;SDS011;15886;49.170;14.572;2023-04-03T00:34:47;10.15;;;6.95;;
28714;SDS011;15886;49.170;14.572;2023-04-03T00:37:16;12.73;;;6.90;;
28714;SDS011;15886;49.170;14.572;2023-04-03T00:39:44;10.40;;;6.68;;
28714;SDS011;15886;49.170;14.572;2023-04-03T00:42:12;10.70;;;6.97;;
28714;SDS011;15886;49.170;14.572;2023-04-03T00:47:15;8.50;;;6.03;;
28714;SDS011;15886;49.170;14.572;2023-04-03T00:49:45;13.07;;;7.15;;
28714;SDS011;15886;49.170;14.572;2023-04-03T00:52:19;13.88;;;7.47;;
28714;SDS011;15886;49.170;14.572;2023-04-03T00:54:54;15.77;;;8.38;;
28714;SDS011;15886;49.170;14.572;2023-04-03T00:57:39;7.88;;;6.45;;
28714;SDS011;15886;49.170;14.572;2023-04-03T01:02:51;14.90;;;6.72;;
28714;SDS011;15886;49.170;14.572;2023-04-03T01:05:20;8.57;;;6.47;;
28714;SDS011;15886;49.170;14.572;2023-04-03T01:07:51;14.35;;;7.40;;
28714;SDS011;15886;49.170;14.572;2023-04-03T01:10:20;12.80;;;7.10;;
28714;SDS011;15886;49.170;14.572;2023-04-03T01:12:49;12.73;;;7.00;;
28714;SDS011;15886;49.170;14.572;2023-04-03T01:15:19;13.63;;;6.63;;
28714;SDS011;15886;49.170;14.572;2023-04-03T01:17:51;11.45;;;6.53;;
28714;SDS011;15886;49.170;14.572;2023-04-03T01:25:46;12.73;;;7.15;;
28714;SDS011;15886;49.170;14.572;2023-04-03T01:28:20;11.63;;;6.78;;
28714;SDS011;15886;49.170;14.572;2023-04-03T01:33:54;15.35;;;9.50;;
28714;SDS011;15886;49.170;14.572;2023-04-03T01:36:24;10.27;;;6.50;;
28714;SDS011;15886;49.170;14.572;2023-04-03T01:39:04;11.60;;;7.25;;
28714;SDS011;15886;49.170;14.572;2023-04-03T01:41:33;10.85;;;6.95;;
28714;SDS011;15886;49.170;14.572;2023-04-03T01:44:10;11.90;;;6.80;;
28714;SDS011;15886;49.170;14.572;2023-04-03T01:46:38;11.13;;;6.57;;
28714;SDS011;15886;49.170;14.572;2023-04-03T01:49:06;10.73;;;6.63;;
28714;SDS011;15886;49.170;14.572;2023-04-03T01:51:34;9.25;;;6.13;;
28714;SDS011;15886;49.170;14.572;2023-04-03T01:54:02;10.23;;;6.22;;
28714;SDS011;15886;49.170;14.572;2023-04-03T01:56:31;11.65;;;6.22;;
28714;SDS011;15886;49.170;14.572;2023-04-03T01:59:00;8.43;;;5.88;;
28714;SDS011;15886;49.170;14.572;2023-04-03T02:01:29;13.10;;;6.88;;
28714;SDS011;15886;49.170;14.572;2023-04-03T02:03:57;8.85;;;6.45;;
28714;SDS011;15886;49.170;14.572;2023-04-03T02:06:26;9.50;;;6.50;;
28714;SDS011;15886;49.170;14.572;2023-04-03T02:08:54;13.82;;;7.82;;
28714;SDS011;15886;49.170;14.572;2023-04-03T02:11:22;10.95;;;6.30;;
28714;SDS011;15886;49.170;14.572;2023-04-03T02:13:50;12.65;;;6.78;;
28714;SDS011;15886;49.170;14.572;2023-04-03T02:16:18;10.15;;;6.57;;
28714;SDS011;15886;49.170;14.572;2023-04-03T02:18:48;10.27;;;7.00;;
28714;SDS011;15886;49.170;14.572;2023-04-03T02:21:17;14.05;;;7.00;;
28714;SDS011;15886;49.170;14.572;2023-04-03T02:23:45;9.50;;;6.75;;
28714;SDS011;15886;49.170;14.572;2023-04-03T02:26:15;14.00;;;7.10;;
28714;SDS011;15886;49.170;14.572;2023-04-03T02:28:44;12.35;;;6.93;;
28714;SDS011;15886;49.170;14.572;2023-04-03T02:31:14;15.02;;;7.90;;
28714;SDS011;15886;49.170;14.572;2023-04-03T02:33:45;16.98;;;8.65;;
28714;SDS011;15886;49.170;14.572;2023-04-03T02:36:15;11.95;;;7.43;;
28714;SDS011;15886;49.170;14.572;2023-04-03T02:38:49;13.05;;;7.72;;
28714;SDS011;15886;49.170;14.572;2023-04-03T02:41:17;14.80;;;8.45;;
28714;SDS011;15886;49.170;14.572;2023-04-03T02:43:46;19.25;;;7.85;;
28714;SDS011;15886;49.170;14.572;2023-04-03T02:46:17;13.57;;;7.13;;
28714;SDS011;15886;49.170;14.572;2023-04-03T02:48:45;14.02;;;8.48;;
28714;SDS011;15886;49.170;14.572;2023-04-03T02:51:13;12.55;;;7.00;;
28714;SDS011;15886;49.170;14.572;2023-04-03T02:53:41;14.57;;;7.78;;
28714;SDS011;15886;49.170;14.572;2023-04-03T02:56:15;13.27;;;6.60;;
28714;SDS011;15886;49.170;14.572;2023-04-03T03:01:19;10.90;;;7.37;;
28714;SDS011;15886;49.170;14.572;2023-04-03T03:03:50;12.23;;;7.55;;
28714;SDS011;15886;49.170;14.572;2023-04-03T03:06:20;16.60;;;7.78;;
28714;SDS011;15886;49.170;14.572;2023-04-03T03:08:55;11.40;;;7.30;;
28714;SDS011;15886;49.170;14.572;2023-04-03T03:11:45;13.23;;;6.32;;
28714;SDS011;15886;49.170;14.572;2023-04-03T03:14:13;12.05;;;7.10;;
28714;SDS011;15886;49.170;14.572;2023-04-03T03:16:42;14.52;;;7.95;;
28714;SDS011;15886;49.170;14.572;2023-04-03T03:19:13;13.73;;;7.47;;
28714;SDS011;15886;49.170;14.572;2023-04-03T03:21:44;11.25;;;7.20;;
28714;SDS011;15886;49.170;14.572;2023-04-03T03:24:12;13.77;;;7.80;;
28714;SDS011;15886;49.170;14.572;2023-04-03T03:26:40;9.68;;;6.55;;
28714;SDS011;15886;49.170;14.572;2023-04-03T03:29:17;17.83;;;8.52;;
28714;SDS011;15886;49.170;14.572;2023-04-03T03:31:46;11.82;;;7.95;;
28714;SDS011;15886;49.170;14.572;2023-04-03T03:34:14;11.30;;;7.95;;
28714;SDS011;15886;49.170;14.572;2023-04-03T03:36:43;11.32;;;6.90;;
28714;SDS011;15886;49.170;14.572;2023-04-03T03:39:14;17.25;;;8.40;;
28714;SDS011;15886;49.170;14.572;2023-04-03T03:41:44;14.38;;;8.23;;
28714;SDS011;15886;49.170;14.572;2023-04-03T03:44:13;14.63;;;7.80;;
28714;SDS011;15886;49.170;14.572;2023-04-03T03:46:42;9.40;;;7.07;;
28714;SDS011;15886;49.170;14.572;2023-04-03T03:49:10;14.40;;;7.85;;
28714;SDS011;15886;49.170;14.572;2023-04-03T03:51:39;13.18;;;8.10;;
28714;SDS011;15886;49.170;14.572;2023-04-03T03:54:12;12.05;;;7.72;;
28714;SDS011;15886;49.170;14.572;2023-04-03T03:56:54;11.80;;;7.60;;
28714;SDS011;15886;49.170;14.572;2023-04-03T03:59:31;13.60;;;6.88;;
28714;SDS011;15886;49.170;14.572;2023-04-03T04:02:17;12.63;;;7.03;;
28714;SDS011;15886;49.170;14.572;2023-04-03T04:04:47;13.60;;;8.00;;
28714;SDS011;15886;49.170;14.572;2023-04-03T04:07:16;8.73;;;6.63;;
28714;SDS011;15886;49.170;14.572;2023-04-03T04:09:52;17.33;;;7.85;;
28714;SDS011;15886;49.170;14.572;2023-04-03T04:12:27;14.15;;;7.30;;
28714;SDS011;15886;49.170;14.572;2023-04-03T04:15:10;11.48;;;7.20;;
28714;SDS011;15886;49.170;14.572;2023-04-03T04:17:53;13.95;;;7.90;;
28714;SDS011;15886;49.170;14.572;2023-04-03T04:20:22;13.05;;;7.90;;
28714;SDS011;15886;49.170;14.572;2023-04-03T04:22:57;10.52;;;6.82;;
28714;SDS011;15886;49.170;14.572;2023-04-03T04:25:36;9.48;;;7.03;;
28714;SDS011;15886;49.170;14.572;2023-04-03T04:28:05;17.60;;;7.32;;
28714;SDS011;15886;49.170;14.572;2023-04-03T04:30:34;11.75;;;7.15;;
28714;SDS011;15886;49.170;14.572;2023-04-03T04:41:00;9.55;;;7.25;;
28714;SDS011;15886;49.170;14.572;2023-04-03T04:44:08;17.30;;;8.02;;
28714;SDS011;15886;49.170;14.572;2023-04-03T04:50:04;11.50;;;6.07;;
28714;SDS011;15886;49.170;14.572;2023-04-03T04:52:33;10.18;;;6.65;;
28714;SDS011;15886;49.170;14.572;2023-04-03T04:55:02;12.93;;;6.47;;
28714;SDS011;15886;49.170;14.572;2023-04-03T05:01:05;12.02;;;7.28;;
28714;SDS011;15886;49.170;14.572;2023-04-03T05:03:48;15.27;;;8.40;;
28714;SDS011;15886;49.170;14.572;2023-04-03T05:06:18;15.07;;;6.63;;
28714;SDS011;15886;49.170;14.572;2023-04-03T05:08:46;14.05;;;6.82;;
28714;SDS011;15886;49.170;14.572;2023-04-03T05:11:15;12.27;;;7.07;;
28714;SDS011;15886;49.170;14.572;2023-04-03T05:13:44;9.18;;;5.70;;
28714;SDS011;15886;49.170;14.572;2023-04-03T05:16:12;12.93;;;6.32;;
28714;SDS011;15886;49.170;14.572;2023-04-03T05:18:41;10.60;;;5.32;;
28714;SDS011;15886;49.170;14.572;2023-04-03T05:21:16;11.02;;;5.13;;
28714;SDS011;15886;49.170;14.572;2023-04-03T05:23:49;11.80;;;5.78;;
28714;SDS011;15886;49.170;14.572;2023-04-03T05:29:13;10.13;;;5.38;;
28714;SDS011;15886;49.170;14.572;2023-04-03T05:31:42;7.78;;;4.18;;
28714;SDS011;15886;49.170;14.572;2023-04-03T05:34:12;9.50;;;4.22;;
28714;SDS011;15886;49.170;14.572;2023-04-03T05:36:42;8.68;;;4.82;;
28714;SDS011;15886;49.170;14.572;2023-04-03T05:39:13;10.40;;;4.07;;
28714;SDS011;15886;49.170;14.572;2023-04-03T05:41:43;7.90;;;3.75;;
28714;SDS011;15886;49.170;14.572;2023-04-03T05:44:11;8.10;;;4.05;;
28714;SDS011;15886;49.170;14.572;2023-04-03T05:46:42;10.73;;;4.03;;
28714;SDS011;15886;49.170;14.572;2023-04-03T05:49:11;8.52;;;3.88;;
28714;SDS011;15886;49.170;14.572;2023-04-03T05:51:39;8.20;;;4.10;;
28714;SDS011;15886;49.170;14.572;2023-04-03T05:56:52;12.70;;;4.18;;
28714;SDS011;15886;49.170;14.572;2023-04-03T05:59:23;12.15;;;4.78;;
28714;SDS011;15886;49.170;14.572;2023-04-03T06:01:55;13.80;;;5.22;;
28714;SDS011;15886;49.170;14.572;2023-04-03T06:04:24;9.15;;;4.50;;
28714;SDS011;15886;49.170;14.572;2023-04-03T06:06:56;12.52;;;6.10;;
28714;SDS011;15886;49.170;14.572;2023-04-03T06:13:52;13.55;;;5.93;;
28714;SDS011;15886;49.170;14.572;2023-04-03T06:16:28;10.50;;;4.57;;
28714;SDS011;15886;49.170;14.572;2023-04-03T06:22:35;13.73;;;6.40;;
28714;SDS011;15886;49.170;14.572;2023-04-03T06:25:13;8.20;;;5.43;;
28714;SDS011;15886;49.170;14.572;2023-04-03T06:27:41;9.15;;;5.90;;
28714;SDS011;15886;49.170;14.572;2023-04-03T06:30:09;8.77;;;5.32;;
28714;SDS011;15886;49.170;14.572;2023-04-03T06:32:38;12.85;;;5.90;;
28714;SDS011;15886;49.170;14.572;2023-04-03T06:35:06;11.85;;;6.30;;
28714;SDS011;15886;49.170;14.572;2023-04-03T06:37:35;10.02;;;4.90;;
28714;SDS011;15886;49.170;14.572;2023-04-03T06:40:04;7.85;;;4.97;;
28714;SDS011;15886;49.170;14.572;2023-04-03T06:42:32;7.70;;;4.72;;
28714;SDS011;15886;49.170;14.572;2023-04-03T06:45:21;11.57;;;4.63;;
28714;SDS011;15886;49.170;14.572;2023-04-03T06:47:52;8.82;;;4.28;;
28714;SDS011;15886;49.170;14.572;2023-04-03T06:50:25;7.50;;;4.38;;
28714;SDS011;15886;49.170;14.572;2023-04-03T06:52:59;7.70;;;4.82;;
28714;SDS011;15886;49.170;14.572;2023-04-03T06:55:28;7.87;;;4.00;;
28714;SDS011;15886;49.170;14.572;2023-04-03T06:57:57;13.45;;;4.60;;
28714;SDS011;15886;49.170;14.572;2023-04-03T07:00:26;7.88;;;4.30;;
28714;SDS011;15886;49.170;14.572;2023-04-03T07:03:01;9.20;;;3.75;;
28714;SDS011;15886;49.170;14.572;2023-04-03T07:08:03;10.45;;;4.53;;
28714;SDS011;15886;49.170;14.572;2023-04-03T07:10:31;8.90;;;4.00;;
28714;SDS011;15886;49.170;14.572;2023-04-03T07:13:01;11.38;;;4.00;;
28714;SDS011;15886;49.170;14.572;2023-04-03T07:16:19;10.13;;;4.25;;
28714;SDS011;15886;49.170;14.572;2023-04-03T07:19:01;8.75;;;3.65;;
28714;SDS011;15886;49.170;14.572;2023-04-03T07:21:46;12.38;;;4.10;;
28714;SDS011;15886;49.170;14.572;2023-04-03T07:24:14;10.25;;;4.20;;
28714;SDS011;15886;49.170;14.572;2023-04-03T07:27:07;8.43;;;4.32;;
28714;SDS011;15886;49.170;14.572;2023-04-03T07:29:40;11.82;;;4.38;;
28714;SDS011;15886;49.170;14.572;2023-04-03T07:32:08;10.43;;;4.20;;
28714;SDS011;15886;49.170;14.572;2023-04-03T07:34:40;10.45;;;4.68;;
28714;SDS011;15886;49.170;14.572;2023-04-03T07:37:12;9.48;;;3.55;;
28714;SDS011;15886;49.170;14.572;2023-04-03T07:39:45;11.25;;;5.03;;
28714;SDS011;15886;49.170;14.572;2023-04-03T07:42:22;8.93;;;4.20;;
28714;SDS011;15886;49.170;14.572;2023-04-03T07:44:51;9.60;;;4.22;;
28714;SDS011;15886;49.170;14.572;2023-04-03T07:47:20;9.30;;;4.05;;
28714;SDS011;15886;49.170;14.572;2023-04-03T07:49:48;8.38;;;4.88;;
28714;SDS011;15886;49.170;14.572;2023-04-03T07:52:16;13.98;;;4.63;;
28714;SDS011;15886;49.170;14.572;2023-04-03T07:54:52;8.50;;;4.38;;
28714;SDS011;15886;49.170;14.572;2023-04-03T07:57:32;10.98;;;4.97;;
28714;SDS011;15886;49.170;14.572;2023-04-03T08:00:19;9.25;;;4.05;;
28714;SDS011;15886;49.170;14.572;2023-04-03T08:02:47;15.30;;;5.00;;
28714;SDS011;15886;49.170;14.572;2023-04-03T08:05:18;10.77;;;5.00;;
28714;SDS011;15886;49.170;14.572;2023-04-03T08:07:47;13.43;;;4.85;;
28714;SDS011;15886;49.170;14.572;2023-04-03T08:10:19;7.78;;;4.15;;
28714;SDS011;15886;49.170;14.572;2023-04-03T08:12:47;12.68;;;5.18;;
28714;SDS011;15886;49.170;14.572;2023-04-03T08:15:16;9.90;;;4.15;;
28714;SDS011;15886;49.170;14.572;2023-04-03T08:17:50;8.60;;;4.03;;
28714;SDS011;15886;49.170;14.572;2023-04-03T08:20:21;6.85;;;4.53;;
28714;SDS011;15886;49.170;14.572;2023-04-03T08:23:02;8.52;;;4.53;;
28714;SDS011;15886;49.170;14.572;2023-04-03T08:26:20;14.00;;;4.95;;
28714;SDS011;15886;49.170;14.572;2023-04-03T08:28:49;8.18;;;4.25;;
28714;SDS011;15886;49.170;14.572;2023-04-03T08:31:19;6.47;;;4.65;;
28714;SDS011;15886;49.170;14.572;2023-04-03T08:33:47;6.38;;;4.32;;
28714;SDS011;15886;49.170;14.572;2023-04-03T08:36:27;7.55;;;4.05;;
28714;SDS011;15886;49.170;14.572;2023-04-03T08:38:57;6.47;;;4.40;;
28714;SDS011;15886;49.170;14.572;2023-04-03T08:41:33;8.93;;;4.60;;
28714;SDS011;15886;49.170;14.572;2023-04-03T08:44:03;9.90;;;5.28;;
28714;SDS011;15886;49.170;14.572;2023-04-03T08:49:42;12.55;;;4.97;;
28714;SDS011;15886;49.170;14.572;2023-04-03T08:52:52;7.70;;;4.60;;
28714;SDS011;15886;49.170;14.572;2023-04-03T09:03:31;8.18;;;4.30;;
28714;SDS011;15886;49.170;14.572;2023-04-03T09:08:53;10.88;;;4.80;;
28714;SDS011;15886;49.170;14.572;2023-04-03T09:14:59;7.40;;;4.22;;
28714;SDS011;15886;49.170;14.572;2023-04-03T09:20:41;9.52;;;4.45;;
28714;SDS011;15886;49.170;14.572;2023-04-03T09:26:39;10.43;;;4.32;;
28714;SDS011;15886;49.170;14.572;2023-04-03T09:32:02;5.70;;;3.40;;
28714;SDS011;15886;49.170;14.572;2023-04-03T09:34:46;5.28;;;3.30;;
28714;SDS011;15886;49.170;14.572;2023-04-03T09:38:19;9.32;;;3.83;;
28714;SDS011;15886;49.170;14.572;2023-04-03T09:40:31;6.22;;;4.10;;
28714;SDS011;15886;49.170;14.572;2023-04-03T09:43:18;6.95;;;4.68;;
28714;SDS011;15886;49.170;14.572;2023-04-03T09:45:52;9.10;;;4.97;;
28714;SDS011;15886;49.170;14.572;2023-04-03T09:48:26;6.97;;;4.20;;
28714;SDS011;15886;49.170;14.572;2023-04-03T09:50:56;10.73;;;4.28;;
28714;SDS011;15886;49.170;14.572;2023-04-03T09:56:04;11.32;;;4.75;;
28714;SDS011;15886;49.170;14.572;2023-04-03T09:58:51;9.27;;;4.80;;
28714;SDS011;15886;49.170;14.572;2023-04-03T10:01:41;8.70;;;4.50;;
28714;SDS011;15886;49.170;14.572;2023-04-03T10:04:14;7.85;;;4.07;;
28714;SDS011;15886;49.170;14.572;2023-04-03T10:06:49;11.82;;;4.20;;
28714;SDS011;15886;49.170;14.572;2023-04-03T10:14:56;8.05;;;4.43;;
28714;SDS011;15886;49.170;14.572;2023-04-03T10:19:55;9.73;;;4.20;;
28714;SDS011;15886;49.170;14.572;2023-04-03T10:22:55;8.10;;;4.30;;
28714;SDS011;15886;49.170;14.572;2023-04-03T10:28:43;13.52;;;4.65;;
28714;SDS011;15886;49.170;14.572;2023-04-03T10:31:22;8.75;;;4.35;;
28714;SDS011;15886;49.170;14.572;2023-04-03T10:34:02;10.10;;;4.38;;
28714;SDS011;15886;49.170;14.572;2023-04-03T10:36:36;8.02;;;4.20;;
28714;SDS011;15886;49.170;14.572;2023-04-03T10:42:41;9.93;;;4.67;;
28714;SDS011;15886;49.170;14.572;2023-04-03T10:51:25;8.82;;;5.07;;
28714;SDS011;15886;49.170;14.572;2023-04-03T10:56:57;6.15;;;4.07;;
28714;SDS011;15886;49.170;14.572;2023-04-03T10:59:48;6.80;;;4.35;;
28714;SDS011;15886;49.170;14.572;2023-04-03T11:04:59;8.05;;;4.18;;
28714;SDS011;15886;49.170;14.572;2023-04-03T11:07:33;6.93;;;4.38;;
28714;SDS011;15886;49.170;14.572;2023-04-03T11:10:13;6.30;;;4.05;;
28714;SDS011;15886;49.170;14.572;2023-04-03T11:13:35;5.15;;;3.58;;
28714;SDS011;15886;49.170;14.572;2023-04-03T11:15:42;9.48;;;5.30;;
28714;SDS011;15886;49.170;14.572;2023-04-03T11:18:17;8.32;;;5.07;;
28714;SDS011;15886;49.170;14.572;2023-04-03T11:21:00;9.27;;;4.35;;
28714;SDS011;15886;49.170;14.572;2023-04-03T11:23:35;6.30;;;4.20;;
28714;SDS011;15886;49.170;14.572;2023-04-03T11:26:13;9.07;;;4.70;;
28714;SDS011;15886;49.170;14.572;2023-04-03T11:28:43;9.43;;;4.38;;
28714;SDS011;15886;49.170;14.572;2023-04-03T11:36:48;5.50;;;3.85;;
28714;SDS011;15886;49.170;14.572;2023-04-03T11:45:15;6.22;;;3.90;;
28714;SDS011;15886;49.170;14.572;2023-04-03T11:48:00;5.72;;;3.67;;
28714;SDS011;15886;49.170;14.572;2023-04-03T11:50:43;7.90;;;4.10;;
28714;SDS011;15886;49.170;14.572;2023-04-03T12:04:28;9.95;;;4.53;;
28714;SDS011;15886;49.170;14.572;2023-04-03T12:07:11;6.95;;;4.50;;
28714;SDS011;15886;49.170;14.572;2023-04-03T12:13:00;10.32;;;5.35;;
28714;SDS011;15886;49.170;14.572;2023-04-03T12:21:12;11.05;;;4.97;;
28714;SDS011;15886;49.170;14.572;2023-04-03T12:29:56;8.43;;;4.80;;
28714;SDS011;15886;49.170;14.572;2023-04-03T12:36:03;9.20;;;4.85;;
28714;SDS011;15886;49.170;14.572;2023-04-03T12:42:49;5.25;;;3.72;;
28714;SDS011;15886;49.170;14.572;2023-04-03T12:45:42;8.63;;;4.45;;
28714;SDS011;15886;49.170;14.572;2023-04-03T12:48:16;8.00;;;3.83;;
28714;SDS011;15886;49.170;14.572;2023-04-03T12:50:50;10.38;;;4.43;;
28714;SDS011;15886;49.170;14.572;2023-04-03T12:55:54;9.38;;;4.25;;
28714;SDS011;15886;49.170;14.572;2023-04-03T12:58:25;9.27;;;4.28;;
28714;SDS011;15886;49.170;14.572;2023-04-03T13:01:08;9.50;;;4.60;;
28714;SDS011;15886;49.170;14.572;2023-04-03T13:03:40;7.05;;;4.53;;
28714;SDS011;15886;49.170;14.572;2023-04-03T13:06:21;7.22;;;3.80;;
28714;SDS011;15886;49.170;14.572;2023-04-03T13:08:53;7.30;;;3.92;;
28714;SDS011;15886;49.170;14.572;2023-04-03T13:11:24;8.95;;;4.50;;
28714;SDS011;15886;49.170;14.572;2023-04-03T13:14:00;9.80;;;4.45;;
28714;SDS011;15886;49.170;14.572;2023-04-03T13:16:32;5.83;;;3.80;;
28714;SDS011;15886;49.170;14.572;2023-04-03T13:19:03;6.93;;;4.20;;
28714;SDS011;15886;49.170;14.572;2023-04-03T13:21:32;7.72;;;4.32;;
28714;SDS011;15886;49.170;14.572;2023-04-03T13:24:02;10.25;;;4.03;;
28714;SDS011;15886;49.170;14.572;2023-04-03T13:26:37;8.02;;;4.70;;
28714;SDS011;15886;49.170;14.572;2023-04-03T13:29:07;11.02;;;4.60;;
28714;SDS011;15886;49.170;14.572;2023-04-03T13:31:46;5.63;;;3.95;;
28714;SDS011;15886;49.170;14.572;2023-04-03T13:34:19;8.85;;;4.00;;
28714;SDS011;15886;49.170;14.572;2023-04-03T13:36:59;6.65;;;3.65;;
28714;SDS011;15886;49.170;14.572;2023-04-03T13:39:30;5.70;;;3.53;;
28714;SDS011;15886;49.170;14.572;2023-04-03T13:42:24;7.25;;;3.72;;
28714;SDS011;15886;49.170;14.572;2023-04-03T13:48:06;7.43;;;3.15;;
28714;SDS011;15886;49.170;14.572;2023-04-03T13:53:32;14.93;;;6.97;;
28714;SDS011;15886;49.170;14.572;2023-04-03T13:56:19;10.80;;;6.50;;
28714;SDS011;15886;49.170;14.572;2023-04-03T13:59:22;8.38;;;3.72;;
28714;SDS011;15886;49.170;14.572;2023-04-03T14:04:44;6.10;;;3.03;;
28714;SDS011;15886;49.170;14.572;2023-04-03T14:07:13;5.55;;;3.85;;
28714;SDS011;15886;49.170;14.572;2023-04-03T14:09:43;7.15;;;3.83;;
28714;SDS011;15886;49.170;14.572;2023-04-03T14:12:24;6.35;;;4.10;;
28714;SDS011;15886;49.170;14.572;2023-04-03T14:14:56;7.35;;;4.25;;
28714;SDS011;15886;49.170;14.572;2023-04-03T14:17:25;7.82;;;3.92;;
28714;SDS011;15886;49.170;14.572;2023-04-03T14:19:55;7.28;;;3.72;;
28714;SDS011;15886;49.170;14.572;2023-04-03T14:22:24;8.25;;;3.58;;
28714;SDS011;15886;49.170;14.572;2023-04-03T14:25:00;8.68;;;3.97;;
28714;SDS011;15886;49.170;14.572;2023-04-03T14:27:41;7.93;;;3.95;;
28714;SDS011;15886;49.170;14.572;2023-04-03T14:37:04;8.90;;;3.72;;
28714;SDS011;15886;49.170;14.572;2023-04-03T14:39:36;6.20;;;3.80;;
28714;SDS011;15886;49.170;14.572;2023-04-03T14:42:13;6.28;;;3.25;;
28714;SDS011;15886;49.170;14.572;2023-04-03T14:48:22;7.35;;;2.40;;
28714;SDS011;15886;49.170;14.572;2023-04-03T14:50:58;5.20;;;2.80;;
28714;SDS011;15886;49.170;14.572;2023-04-03T14:53:34;7.38;;;3.25;;
28714;SDS011;15886;49.170;14.572;2023-04-03T14:56:31;5.65;;;2.83;;
28714;SDS011;15886;49.170;14.572;2023-04-03T14:59:36;4.53;;;3.00;;
28714;SDS011;15886;49.170;14.572;2023-04-03T15:05:25;9.40;;;4.50;;
28714;SDS011;15886;49.170;14.572;2023-04-03T15:08:24;6.83;;;3.87;;
28714;SDS011;15886;49.170;14.572;2023-04-03T15:11:43;6.10;;;3.60;;
28714;SDS011;15886;49.170;14.572;2023-04-03T15:17:50;6.72;;;2.83;;
28714;SDS011;15886;49.170;14.572;2023-04-03T15:20:27;12.38;;;5.53;;
28714;SDS011;15886;49.170;14.572;2023-04-03T15:28:35;6.47;;;2.97;;
28714;SDS011;15886;49.170;14.572;2023-04-03T15:31:11;5.45;;;2.80;;
28714;SDS011;15886;49.170;14.572;2023-04-03T15:34:06;5.93;;;3.35;;
28714;SDS011;15886;49.170;14.572;2023-04-03T15:44:08;6.80;;;3.22;;
28714;SDS011;15886;49.170;14.572;2023-04-03T15:46:55;6.35;;;3.75;;
28714;SDS011;15886;49.170;14.572;2023-04-03T15:49:55;6.10;;;3.15;;
28714;SDS011;15886;49.170;14.572;2023-04-03T15:52:55;7.50;;;2.88;;
28714;SDS011;15886;49.170;14.572;2023-04-03T15:56:18;4.60;;;2.65;;
28714;SDS011;15886;49.170;14.572;2023-04-03T15:59:06;7.93;;;3.08;;
28714;SDS011;15886;49.170;14.572;2023-04-03T16:02:07;7.88;;;3.47;;
28714;SDS011;15886;49.170;14.572;2023-04-03T16:04:55;4.82;;;2.75;;
28714;SDS011;15886;49.170;14.572;2023-04-03T16:07:24;13.75;;;6.05;;
28714;SDS011;15886;49.170;14.572;2023-04-03T16:10:02;6.45;;;2.33;;
28714;SDS011;15886;49.170;14.572;2023-04-03T16:13:17;8.73;;;3.08;;
28714;SDS011;15886;49.170;14.572;2023-04-03T16:16:07;7.50;;;2.78;;
28714;SDS011;15886;49.170;14.572;2023-04-03T16:18:46;5.13;;;2.67;;
28714;SDS011;15886;49.170;14.572;2023-04-03T16:21:17;4.45;;;2.50;;
28714;SDS011;15886;49.170;14.572;2023-04-03T16:24:01;5.30;;;2.75;;
28714;SDS011;15886;49.170;14.572;2023-04-03T16:31:00;7.43;;;2.47;;
28714;SDS011;15886;49.170;14.572;2023-04-03T16:33:32;6.90;;;2.60;;
28714;SDS011;15886;49.170;14.572;2023-04-03T16:37:28;5.43;;;2.58;;
28714;SDS011;15886;49.170;14.572;2023-04-03T16:40:56;8.68;;;2.55;;
28714;SDS011;15886;49.170;14.572;2023-04-03T16:43:42;7.38;;;2.63;;
28714;SDS011;15886;49.170;14.572;2023-04-03T16:46:29;7.47;;;3.15;;
28714;SDS011;15886;49.170;14.572;2023-04-03T16:49:00;5.75;;;2.22;;
28714;SDS011;15886;49.170;14.572;2023-04-03T16:51:30;7.25;;;2.85;;
28714;SDS011;15886;49.170;14.572;2023-04-03T16:54:05;9.02;;;2.88;;
28714;SDS011;15886;49.170;14.572;2023-04-03T16:56:39;9.38;;;2.47;;
28714;SDS011;15886;49.170;14.572;2023-04-03T16:59:46;4.80;;;2.50;;
28714;SDS011;15886;49.170;14.572;2023-04-03T17:02:15;7.95;;;2.38;;
28714;SDS011;15886;49.170;14.572;2023-04-03T17:08:36;6.28;;;2.47;;
28714;SDS011;15886;49.170;14.572;2023-04-03T17:11:46;5.90;;;2.45;;
28714;SDS011;15886;49.170;14.572;2023-04-03T17:14:17;5.00;;;2.30;;
28714;SDS011;15886;49.170;14.572;2023-04-03T17:16:49;5.35;;;2.47;;
28714;SDS011;15886;49.170;14.572;2023-04-03T17:23:09;6.00;;;3.13;;
28714;SDS011;15886;49.170;14.572;2023-04-03T17:25:43;7.07;;;2.78;;
28714;SDS011;15886;49.170;14.572;2023-04-03T17:28:12;8.00;;;3.45;;
28714;SDS011;15886;49.170;14.572;2023-04-03T17:30:57;4.18;;;2.65;;
28714;SDS011;15886;49.170;14.572;2023-04-03T17:33:38;7.20;;;2.67;;
28714;SDS011;15886;49.170;14.572;2023-04-03T17:36:14;10.00;;;3.03;;
28714;SDS011;15886;49.170;14.572;2023-04-03T17:38:46;6.22;;;2.65;;
28714;SDS011;15886;49.170;14.572;2023-04-03T17:41:22;6.95;;;3.15;;
28714;SDS011;15886;49.170;14.572;2023-04-03T17:43:51;4.70;;;2.47;;
28714;SDS011;15886;49.170;14.572;2023-04-03T17:46:25;6.10;;;2.60;;
28714;SDS011;15886;49.170;14.572;2023-04-03T17:48:55;7.20;;;2.70;;
28714;SDS011;15886;49.170;14.572;2023-04-03T17:51:26;8.85;;;3.30;;
28714;SDS011;15886;49.170;14.572;2023-04-03T17:53:55;8.00;;;3.20;;
28714;SDS011;15886;49.170;14.572;2023-04-03T17:56:24;5.70;;;2.90;;
28714;SDS011;15886;49.170;14.572;2023-04-03T17:58:56;6.93;;;2.50;;
28714;SDS011;15886;49.170;14.572;2023-04-03T18:01:27;7.22;;;3.20;;
28714;SDS011;15886;49.170;14.572;2023-04-03T18:03:59;7.93;;;2.72;;
28714;SDS011;15886;49.170;14.572;2023-04-03T18:06:30;7.85;;;2.88;;
28714;SDS011;15886;49.170;14.572;2023-04-03T18:09:14;5.43;;;2.50;;
28714;SDS011;15886;49.170;14.572;2023-04-03T18:11:45;12.50;;;3.40;;
28714;SDS011;15886;49.170;14.572;2023-04-03T18:14:17;4.63;;;2.60;;
28714;SDS011;15886;49.170;14.572;2023-04-03T18:16:49;9.85;;;3.45;;
28714;SDS011;15886;49.170;14.572;2023-04-03T18:19:19;7.47;;;3.70;;
28714;SDS011;15886;49.170;14.572;2023-04-03T18:21:54;5.90;;;3.65;;
28714;SDS011;15886;49.170;14.572;2023-04-03T18:24:24;10.35;;;3.03;;
28714;SDS011;15886;49.170;14.572;2023-04-03T18:26:55;5.88;;;2.97;;
28714;SDS011;15886;49.170;14.572;2023-04-03T18:29:30;7.75;;;2.70;;
28714;SDS011;15886;49.170;14.572;2023-04-03T18:32:02;8.33;;;2.93;;
28714;SDS011;15886;49.170;14.572;2023-04-03T18:34:31;5.90;;;3.40;;
28714;SDS011;15886;49.170;14.572;2023-04-03T18:37:02;7.07;;;4.30;;
28714;SDS011;15886;49.170;14.572;2023-04-03T18:39:36;8.60;;;2.97;;
28714;SDS011;15886;49.170;14.572;2023-04-03T18:42:10;9.60;;;2.75;;
28714;SDS011;15886;49.170;14.572;2023-04-03T18:45:00;9.05;;;3.10;;